Llano, TX

11:23 AM CST on February 27, 2015 (GMT -0600)
Fredericksburg | Change Station
CLOSE
Current Station
Airport
Location: Fredericksburg,
Elevation: 1696 ft
Nearby Weather Stations
Active Advisory: Special Statement

Elev 1696 ft 30.24 °N, 98.91 °W | Updated 8 minutes ago

Overcast
Overcast
31 °F
Feels Like 22 °F
N
10
Wind Variable Wind from ENE

Today
High -- | Low -- °F
--% Chance of Precip.
Yesterday
High -- | Low -- °F
Precip. -- in
7:03 AM 6:31 PM
Waxing Gibbous, 70% visible
Pressure 30.32 in
Visibility 10.0 miles
Clouds Overcast 2200 ft
Windchill 22 °F
Dew Point 22 °F
Humidity 71%
Rainfall 0.00 in
Snow Depth Not available.
UV 2 out of 12
Pollen 6.90 out of 12
Air Quality Not available.
Flu Activity Not available.
METAR KT82 271715Z AUTO 07009KT 10SM OVC022 M01/M05 A3032 RMK AO2 T10061053

More Conditions Fewer Conditions

Pressure 30.32 in
Visibility 10.0 miles
Clouds Overcast 2200 ft
Windchill 22 °F
Dew Point 22 °F
Humidity 71%
Rainfall 0.00 in
Snow Depth Not available.
UV 2 out of 12
Pollen 6.90 out of 12
Air Quality Not available.
Flu Activity Not available.
METAR KT82 271715Z AUTO 07009KT 10SM OVC022 M01/M05 A3032 RMK AO2 T10061053

More Conditions Fewer Conditions

10-Day Weather Forecast

Almanac

Astronomy

Feb. 27, 2015 Rise Set
Actual Time
Civil Twilight
Nautical Twilight
Astronomical Twilight
Moon
Length of Visible Light
Length of Day
Tomorrow will be .
, % of the Moon is Illuminated

Today's Extremes

State Highs State Lows

Community

WunderPhotos

Upload Photos

1,800,748 photos uploaded!

WunderBlogs® & News

Nearby

Air Quality

  Air Quality AQ Index Pollutant
Not available.

Snow Depth

Station Depth Elevation

Earthquake Activity

City Distance Mag. Time & Date
Minimum magnitude displayed is 2.5.

Coastal Water Temperatures

Place Temperature

Nearby Weather Stations

Special Statement
Statement as of 4:06 AM CST on February 27, 2015

... Light winter precipitation possible for The Hill Country today into
early Saturday...

A shallow Arctic air mass over the southern Edwards Plateau and Hill
Country could bring some light winter precipitation to areas along
and north of a Pandale to Kerrville to Johnson City to Jarrell line
through Saturday morning. At this time... a mixture of snow and
sleet is expected this morning... with a transition to light
freezing rain and freezing drizzle tonight into Saturday morning.
Total accumulations are expected to be very light with only
limited icing impacts to elevated bridges and overpasses.

Temperatures are expected to warm above freezing across all of
south central Texas by late Saturday morning.